Terminal Aerodrome Forecast
Issued by NWS

Home | Current Version | Previous Version | Text Only | Print | Product List | Glossary On
Versions: 1 2 3 4 5 6 7 8 9 10 11 12 13 14 15 16
778
FTUS41 KBGM 200535
TAFELM
TAF
KELM 200535Z 2006/2106 33003KT P6SM SCT200
     FM201000 33007KT P6SM SCT025
     FM201600 35007KT P6SM SCT040 SCT150
     FM202300 VRB03KT P6SM FEW250=

USA.gov is the U.S. government's official web portal to all federal, state and local government web resources and services.